Time;durP1;ratioP1;P1;durP2;ratioP2;P2;SDS_P1;SDS_P2;PMS_P1;PMS_P2;Temp;Humidity;BMP_temperature;BMP_pressure;BME280_temperature;BME280_humidity;BME280_pressure;Samples;Min_cycle;Max_cycle;Signal;HPM_P1;HPM_P2
2021/09/18 00:02:19;;;;;;;2.83;2.63;;;;;;;15.79;66.49;101486.19;6195821;28;20285;-47
2021/09/18 00:05:40;;;;;;;2.90;2.53;;;;;;;15.75;66.81;101485.38;6201328;28;20237;-51
2021/09/18 00:09:01;;;;;;;2.80;2.60;;;;;;;15.58;67.22;101484.81;6199609;28;20225;-44
2021/09/18 00:12:23;;;;;;;3.53;3.23;;;;;;;15.75;67.25;101495.91;6193406;28;20233;-51
2021/09/18 00:15:44;;;;;;;3.43;3.13;;;;;;;15.85;66.64;101492.19;6187069;28;20234;-45
2021/09/18 00:19:05;;;;;;;3.33;2.50;;;;;;;15.66;67.61;101490.78;6188092;28;21260;-47
2021/09/18 00:22:26;;;;;;;4.37;3.17;;;;;;;15.78;67.03;101495.84;6199365;28;20234;-47
2021/09/18 00:25:47;;;;;;;3.27;2.97;;;;;;;15.61;67.77;101492.66;6199002;28;20802;-47
2021/09/18 00:29:09;;;;;;;3.20;3.00;;;;;;;15.78;67.11;101489.72;6189495;28;20320;-47
2021/09/18 00:32:30;;;;;;;3.80;3.40;;;;;;;15.74;67.66;101491.53;6196011;28;20614;-49
2021/09/18 00:35:51;;;;;;;4.03;3.60;;;;;;;15.78;67.50;101495.84;6202370;28;20225;-47
2021/09/18 00:39:12;;;;;;;6.43;4.60;;;;;;;16.01;66.64;101500.59;6203373;28;20715;-47
2021/09/18 00:42:34;;;;;;;4.80;4.40;;;;;;;15.82;67.50;101510.66;6206178;28;20244;-46
2021/09/18 00:45:56;;;;;;;4.67;4.20;;;;;;;15.93;67.13;101507.78;6203085;28;20238;-47
2021/09/18 00:49:17;;;;;;;4.33;3.90;;;;;;;16.00;67.17;101511.16;6203659;28;20221;-47
2021/09/18 00:52:38;;;;;;;4.77;3.60;;;;;;;15.93;67.49;101500.75;6202408;28;20237;-46
2021/09/18 00:56:00;;;;;;;4.33;3.60;;;;;;;16.01;67.43;101497.13;6209519;28;20233;-45
2021/09/18 00:59:22;;;;;;;4.43;3.77;;;;;;;15.90;67.54;101500.84;6204943;28;20675;-51
2021/09/18 01:02:44;;;;;;;5.23;4.73;;;;;;;15.79;68.15;101505.44;6199873;28;20895;-48
2021/09/18 01:06:05;;;;;;;5.60;5.10;;;;;;;15.63;68.86;101506.63;6204173;28;20319;-50
2021/09/18 01:09:28;;;;;;;5.03;4.60;;;;;;;15.76;68.46;101495.00;6206978;28;20229;-46
2021/09/18 01:13:01;;;;;;;5.27;4.73;;;;;;;15.88;68.06;101502.63;6195653;28;20232;-47
2021/09/18 01:16:24;;;;;;;6.50;4.33;;;;;;;15.86;68.20;101503.56;6206811;28;20621;-49
2021/09/18 01:19:46;;;;;;;5.43;4.93;;;;;;;15.80;68.70;101506.31;6206661;28;20505;-48
2021/09/18 01:23:08;;;;;;;5.33;4.90;;;;;;;15.94;68.24;101506.91;6196602;28;21034;-47
2021/09/18 01:26:33;;;;;;;6.20;4.57;;;;;;;15.90;68.47;101510.50;6203802;28;20233;-47
2021/09/18 01:29:54;;;;;;;4.60;4.20;;;;;;;15.97;68.44;101511.22;6203467;28;21778;-47
2021/09/18 01:33:15;;;;;;;4.07;3.77;;;;;;;16.07;68.08;101504.88;6196706;28;20230;-48
2021/09/18 01:36:36;;;;;;;4.57;4.17;;;;;;;15.90;68.87;101503.47;6200603;28;20229;-46
2021/09/18 01:39:57;;;;;;;4.57;4.17;;;;;;;15.89;68.46;101514.00;6204196;28;20265;-51
2021/09/18 01:43:19;;;;;;;5.00;4.50;;;;;;;15.84;68.92;101513.22;6206036;28;20292;-46
2021/09/18 01:46:41;;;;;;;5.27;4.87;;;;;;;15.98;68.55;101518.22;6201120;28;20229;-48
2021/09/18 01:50:02;;;;;;;4.33;3.93;;;;;;;16.24;67.63;101521.16;6199619;28;20253;-45
2021/09/18 01:53:25;;;;;;;4.50;4.07;;;;;;;15.93;68.95;101516.53;6194880;28;20246;-47
2021/09/18 01:56:46;;;;;;;4.53;4.13;;;;;;;15.90;69.87;101521.00;6189133;28;20229;-46
2021/09/18 02:00:10;;;;;;;5.17;4.67;;;;;;;15.92;70.01;101520.06;6198810;28;20237;-48
2021/09/18 02:03:31;;;;;;;5.40;4.90;;;;;;;16.03;69.68;101521.59;6200248;28;20500;-47
2021/09/18 02:06:51;;;;;;;4.87;4.47;;;;;;;15.89;70.54;101517.47;6200288;28;20615;-47
2021/09/18 02:10:14;;;;;;;5.17;4.67;;;;;;;15.97;70.81;101517.31;6200111;28;20256;-45
2021/09/18 02:13:35;;;;;;;6.03;5.23;;;;;;;15.96;70.91;101514.75;6203739;28;20237;-47
2021/09/18 02:16:58;;;;;;;5.03;4.60;;;;;;;15.86;71.26;101522.81;6201279;28;20678;-49
2021/09/18 02:20:20;;;;;;;5.97;5.37;;;;;;;15.69;72.25;101517.00;6203473;28;20256;-48
2021/09/18 02:23:41;;;;;;;6.57;5.43;;;;;;;15.96;71.37;101520.00;6200539;28;20233;-46
2021/09/18 02:27:02;;;;;;;5.67;5.17;;;;;;;15.70;72.74;101506.47;6200070;28;20229;-47
2021/09/18 02:30:25;;;;;;;5.20;4.70;;;;;;;15.72;72.92;101511.66;6203674;28;20233;-45
2021/09/18 02:33:48;;;;;;;6.23;5.70;;;;;;;15.62;73.28;101520.63;6187376;28;20229;-47
2021/09/18 02:37:09;;;;;;;5.83;5.40;;;;;;;15.79;73.19;101517.72;6198991;28;20611;-46
2021/09/18 02:40:30;;;;;;;5.97;5.47;;;;;;;15.79;73.08;101513.31;6196901;28;20233;-46
2021/09/18 02:43:51;;;;;;;6.80;6.30;;;;;;;15.88;73.12;101518.41;6189545;28;20225;-48
2021/09/18 02:47:12;;;;;;;5.70;5.10;;;;;;;15.91;72.67;101520.94;6203161;28;20532;-51
2021/09/18 02:50:34;;;;;;;6.83;6.20;;;;;;;15.89;72.73;101516.63;6202541;28;20225;-46
2021/09/18 02:53:55;;;;;;;5.87;5.37;;;;;;;16.04;72.16;101515.47;6200041;28;20237;-49
2021/09/18 02:57:16;;;;;;;6.50;5.30;;;;;;;15.88;72.57;101515.78;6202955;28;20623;-45
2021/09/18 03:00:37;;;;;;;6.47;5.93;;;;;;;15.84;72.79;101511.47;6197772;28;20324;-46
2021/09/18 03:03:58;;;;;;;6.57;6.00;;;;;;;15.96;72.75;101518.25;6199396;28;20516;-47
2021/09/18 03:07:20;;;;;;;6.90;6.20;;;;;;;15.85;73.10;101512.34;6197666;28;20655;-47
2021/09/18 03:10:40;;;;;;;6.73;6.20;;;;;;;15.80;73.16;101509.81;6199714;28;20616;-48
2021/09/18 03:14:02;;;;;;;6.53;5.87;;;;;;;15.83;73.10;101509.72;6202859;28;20717;-50
2021/09/18 03:17:22;;;;;;;6.13;5.57;;;;;;;15.99;72.58;101517.31;6202402;28;20253;-48
2021/09/18 03:20:43;;;;;;;6.03;5.53;;;;;;;15.90;73.09;101516.59;6199167;28;20245;-46
2021/09/18 03:24:06;;;;;;;6.87;5.60;;;;;;;15.99;72.59;101509.44;6205336;28;20233;-46
2021/09/18 03:27:27;;;;;;;6.40;5.80;;;;;;;15.84;73.52;101514.09;6202336;28;20234;-46
2021/09/18 03:30:48;;;;;;;7.80;7.00;;;;;;;15.80;73.28;101514.19;6202946;28;20229;-49
2021/09/18 03:34:10;;;;;;;5.97;5.40;;;;;;;16.00;72.97;101516.44;6200759;28;20221;-47
2021/09/18 03:37:34;;;;;;;7.00;6.50;;;;;;;16.09;72.68;101521.47;6199393;28;20226;-46
2021/09/18 03:40:56;;;;;;;8.70;7.90;;;;;;;16.06;72.75;101522.41;6200966;28;20316;-48
2021/09/18 03:44:17;;;;;;;7.77;7.07;;;;;;;15.98;73.48;101524.31;6199992;28;20225;-47
2021/09/18 03:47:38;;;;;;;7.90;6.87;;;;;;;16.07;72.93;101523.25;6204271;28;20237;-48
2021/09/18 03:50:59;;;;;;;7.30;6.60;;;;;;;16.05;72.95;101525.06;6199813;28;20615;-48
2021/09/18 03:54:20;;;;;;;7.00;6.40;;;;;;;16.11;73.09;101530.19;6186477;28;20230;-51
2021/09/18 03:57:43;;;;;;;9.40;8.53;;;;;;;15.91;73.82;101523.56;6198053;28;20230;-49
2021/09/18 04:01:04;;;;;;;7.87;7.10;;;;;;;15.90;74.12;101527.09;6195482;28;20253;-51
2021/09/18 04:04:24;;;;;;;6.93;6.00;;;;;;;15.84;74.02;101524.59;6197842;28;20230;-46
2021/09/18 04:07:45;;;;;;;6.20;5.70;;;;;;;16.02;73.67;101525.13;6199659;28;20236;-49
2021/09/18 04:11:06;;;;;;;6.97;6.33;;;;;;;16.02;73.88;101530.38;6201178;28;20523;-48
2021/09/18 04:14:28;;;;;;;7.20;6.60;;;;;;;16.03;74.17;101529.47;6208443;28;20622;-48
2021/09/18 04:17:49;;;;;;;7.00;6.40;;;;;;;16.21;73.25;101529.09;6205975;28;20312;-50
2021/09/18 04:21:10;;;;;;;8.33;7.53;;;;;;;16.31;72.87;101530.63;6209274;28;20773;-52
2021/09/18 04:24:31;;;;;;;7.63;6.93;;;;;;;16.14;73.61;101535.38;6204695;28;20240;-49
2021/09/18 04:27:52;;;;;;;7.03;6.30;;;;;;;16.19;73.25;101536.16;6200130;28;20229;-51
2021/09/18 04:31:14;;;;;;;6.27;5.67;;;;;;;16.01;73.93;101539.16;6198840;28;20268;-48
2021/09/18 04:34:35;;;;;;;7.37;6.80;;;;;;;16.06;73.41;101540.78;6203842;28;20224;-52
2021/09/18 04:37:56;;;;;;;6.93;6.33;;;;;;;16.06;73.66;101547.81;6199738;28;20229;-49
2021/09/18 04:41:17;;;;;;;7.60;6.40;;;;;;;16.06;74.16;101553.06;6205246;28;20558;-46
2021/09/18 04:44:38;;;;;;;6.90;6.40;;;;;;;16.20;73.35;101543.13;6205982;28;21381;-50
2021/09/18 04:48:00;;;;;;;7.93;7.20;;;;;;;16.15;73.38;101547.63;6200692;28;20244;-52
2021/09/18 04:51:22;;;;;;;7.30;6.20;;;;;;;16.33;73.16;101547.22;6206538;28;20257;-50
2021/09/18 04:54:42;;;;;;;7.77;7.00;;;;;;;16.20;73.54;101556.28;6201548;28;20771;-52
2021/09/18 04:58:03;;;;;;;7.80;7.10;;;;;;;16.20;73.71;101558.91;6199752;28;20232;-47
2021/09/18 05:01:24;;;;;;;8.10;7.37;;;;;;;16.29;73.20;101557.84;6183093;28;20238;-54
2021/09/18 05:04:47;;;;;;;6.20;5.43;;;;;;;16.33;73.16;101565.63;6202029;28;20225;-49
2021/09/18 05:08:08;;;;;;;7.40;6.73;;;;;;;16.41;72.67;101570.72;6199018;28;20309;-48
2021/09/18 05:11:29;;;;;;;6.77;6.07;;;;;;;16.32;73.31;101571.81;6201869;28;20233;-45
2021/09/18 05:14:50;;;;;;;6.80;6.20;;;;;;;16.41;72.82;101575.13;6203009;28;20237;-49
2021/09/18 05:18:11;;;;;;;7.23;6.53;;;;;;;16.28;73.37;101585.03;6205579;28;20225;-50
2021/09/18 05:21:33;;;;;;;6.07;5.40;;;;;;;16.31;73.45;101580.56;6201652;28;20233;-47
2021/09/18 05:24:54;;;;;;;7.03;6.40;;;;;;;16.13;74.12;101583.59;6209547;28;20241;-48
2021/09/18 05:28:15;;;;;;;6.30;5.80;;;;;;;16.14;74.77;101587.94;6204050;28;20413;-48
2021/09/18 05:31:36;;;;;;;8.77;7.53;;;;;;;16.28;73.91;101585.88;6204104;28;20222;-48
2021/09/18 05:34:57;;;;;;;7.13;6.10;;;;;;;16.28;73.99;101593.75;6201702;28;20257;-46
2021/09/18 05:38:19;;;;;;;6.10;5.50;;;;;;;16.20;74.45;101593.06;6200231;28;20221;-45
2021/09/18 05:41:39;;;;;;;7.00;6.47;;;;;;;16.40;73.60;101589.16;6205837;28;20233;-48
2021/09/18 05:45:00;;;;;;;7.40;6.53;;;;;;;16.40;73.81;101599.66;6205148;28;20240;-47
2021/09/18 05:48:22;;;;;;;5.97;5.47;;;;;;;16.61;72.73;101591.31;6164273;28;20257;-50
2021/09/18 05:51:43;;;;;;;6.57;5.97;;;;;;;16.72;72.49;101588.47;6199909;28;20260;-48
2021/09/18 05:55:07;;;;;;;6.87;6.27;;;;;;;16.64;72.56;101586.00;6205550;28;20609;-48
2021/09/18 05:58:28;;;;;;;7.93;7.30;;;;;;;16.73;72.91;101582.31;6205843;28;20233;-45
2021/09/18 06:01:49;;;;;;;7.30;6.70;;;;;;;16.88;71.86;101594.28;6205536;28;20229;-48
2021/09/18 06:05:11;;;;;;;6.10;5.67;;;;;;;16.74;72.42;101598.03;6206397;28;20503;-50
2021/09/18 06:08:32;;;;;;;8.67;6.03;;;;;;;16.84;72.12;101600.50;6202036;28;20237;-49
2021/09/18 06:11:54;;;;;;;5.97;5.57;;;;;;;16.78;72.40;101605.88;6201034;28;20567;-49
2021/09/18 06:15:15;;;;;;;6.43;5.83;;;;;;;16.90;72.01;101608.25;6203753;28;20232;-51
2021/09/18 06:18:36;;;;;;;6.47;5.97;;;;;;;16.82;72.27;101607.56;6200231;28;20225;-52
2021/09/18 06:21:57;;;;;;;7.03;6.53;;;;;;;16.86;72.19;101610.09;6197629;28;20233;-47
2021/09/18 06:25:18;;;;;;;6.10;5.60;;;;;;;16.79;72.78;101613.75;6204127;28;20234;-50
2021/09/18 06:28:41;;;;;;;6.07;5.63;;;;;;;17.02;72.02;101618.50;6201666;28;20587;-52
2021/09/18 06:32:07;;;;;;;4.87;4.47;;;;;;;17.08;71.65;101615.75;6205458;28;20626;-51
2021/09/18 06:35:28;;;;;;;4.90;4.37;;;;;;;17.10;71.61;101621.81;6190791;28;20242;-50
2021/09/18 06:38:49;;;;;;;5.03;4.63;;;;;;;17.22;71.46;101622.44;6199576;28;20229;-54
2021/09/18 06:42:10;;;;;;;4.87;4.30;;;;;;;17.24;71.22;101628.53;6197184;28;20233;-52
2021/09/18 06:45:32;;;;;;;5.63;4.70;;;;;;;17.20;71.23;101629.50;6201291;28;20233;-48
2021/09/18 06:48:53;;;;;;;4.43;4.13;;;;;;;17.18;71.88;101623.41;6200137;28;20237;-50
2021/09/18 06:52:14;;;;;;;4.67;4.13;;;;;;;17.45;70.74;101633.28;6203072;28;20229;-47
2021/09/18 06:55:36;;;;;;;4.70;4.30;;;;;;;17.75;69.65;101632.53;6196027;28;20240;-49
2021/09/18 06:58:57;;;;;;;4.20;3.77;;;;;;;17.82;69.06;101632.34;6203615;28;20242;-48
2021/09/18 07:02:20;;;;;;;4.80;4.27;;;;;;;17.89;69.12;101641.84;6199506;28;20320;-50
2021/09/18 07:05:40;;;;;;;3.83;3.47;;;;;;;17.75;69.42;101638.66;6198496;28;20608;-52
2021/09/18 07:09:01;;;;;;;5.23;4.83;;;;;;;17.90;69.23;101643.56;6197981;28;22263;-47
2021/09/18 07:12:22;;;;;;;3.80;3.50;;;;;;;17.90;68.85;101638.28;6195477;28;20238;-47
2021/09/18 07:15:43;;;;;;;4.07;3.07;;;;;;;18.15;67.92;101640.28;6209922;28;20233;-45
2021/09/18 07:19:05;;;;;;;3.20;2.90;;;;;;;18.12;68.59;101650.88;6200867;28;20566;-51
2021/09/18 07:22:25;;;;;;;3.27;2.97;;;;;;;18.29;67.75;101656.56;6199944;28;20513;-48
2021/09/18 07:25:46;;;;;;;2.90;2.70;;;;;;;18.08;67.75;101658.00;6208664;28;20233;-52
2021/09/18 07:29:07;;;;;;;2.50;2.30;;;;;;;17.86;69.08;101657.72;6204353;28;20346;-46
2021/09/18 07:32:28;;;;;;;3.03;2.33;;;;;;;18.05;68.81;101658.09;6201654;28;20261;-48
2021/09/18 07:35:50;;;;;;;4.73;3.40;;;;;;;18.25;68.32;101656.69;6207174;28;20315;-51
2021/09/18 07:39:12;;;;;;;3.22;2.00;;;;;;;18.25;67.79;101659.34;6205819;28;20531;-46
2021/09/18 07:42:33;;;;;;;3.33;2.57;;;;;;;18.60;66.79;101653.03;6203693;28;20233;-45
2021/09/18 07:45:54;;;;;;;2.83;2.23;;;;;;;18.46;66.86;101656.09;6206369;28;20225;-46
2021/09/18 07:49:16;;;;;;;2.13;1.90;;;;;;;18.52;66.18;101662.97;6201235;28;20233;-48
2021/09/18 07:52:40;;;;;;;3.27;2.60;;;;;;;18.27;67.31;101662.78;6200406;28;20237;-50
2021/09/18 07:56:01;;;;;;;2.40;1.73;;;;;;;18.59;66.40;101663.63;6201492;28;20597;-47
2021/09/18 07:59:22;;;;;;;2.10;1.90;;;;;;;18.98;65.41;101664.25;6202490;28;20541;-47
2021/09/18 08:02:43;;;;;;;2.00;1.90;;;;;;;18.78;65.62;101671.88;6202128;28;20542;-48
2021/09/18 08:06:05;;;;;;;1.50;1.40;;;;;;;18.45;66.28;101671.94;6206910;28;20225;-52
2021/09/18 08:09:27;;;;;;;1.77;1.53;;;;;;;18.50;66.01;101677.97;6201063;28;20236;-50
2021/09/18 08:12:48;;;;;;;1.67;1.50;;;;;;;18.56;65.79;101675.16;6187869;28;20225;-50
2021/09/18 08:16:09;;;;;;;2.90;1.55;;;;;;;18.88;64.54;101676.00;6191782;28;20443;-46
2021/09/18 08:19:30;;;;;;;2.95;1.67;;;;;;;19.21;64.17;101675.88;6200565;28;20229;-47
2021/09/18 08:22:51;;;;;;;2.65;1.70;;;;;;;19.46;63.15;101684.75;6196606;28;20233;-46
2021/09/18 08:26:14;;;;;;;1.45;1.35;;;;;;;19.95;61.58;101677.00;6199865;28;20228;-50
2021/09/18 08:29:35;;;;;;;2.05;1.75;;;;;;;20.18;61.75;101684.13;6194984;28;20319;-45
2021/09/18 08:32:55;;;;;;;2.08;1.67;;;;;;;20.38;60.43;101682.53;6195052;28;20570;-50
2021/09/18 08:36:17;;;;;;;2.55;1.75;;;;;;;20.71;59.62;101691.03;6196456;28;20232;-51
2021/09/18 08:39:38;;;;;;;1.45;1.25;;;;;;;20.84;59.74;101687.00;6197130;28;20233;-48
2021/09/18 08:43:01;;;;;;;2.40;1.63;;;;;;;20.58;59.42;101685.28;6194600;28;20237;-47
2021/09/18 08:46:22;;;;;;;3.22;1.45;;;;;;;20.50;60.09;101684.72;6182102;28;20328;-45
2021/09/18 08:49:43;;;;;;;1.67;1.27;;;;;;;20.46;59.65;101694.53;6187088;28;20233;-52
2021/09/18 08:53:04;;;;;;;1.20;1.05;;;;;;;20.13;59.97;101701.91;6197327;28;20313;-47
2021/09/18 08:56:25;;;;;;;1.77;1.02;;;;;;;20.30;59.30;101698.69;6197830;28;21125;-46
2021/09/18 08:59:47;;;;;;;1.83;1.10;;;;;;;20.10;59.18;101701.16;6203334;28;20225;-49
2021/09/18 09:03:09;;;;;;;1.23;1.13;;;;;;;20.36;58.86;101701.09;6201160;28;20229;-50
2021/09/18 09:06:41;;;;;;;1.08;0.98;;;;;;;19.98;59.76;101702.44;6200902;28;20257;-47
2021/09/18 09:10:04;;;;;;;2.63;1.23;;;;;;;19.82;59.30;101713.53;6203737;28;20570;-47
2021/09/18 09:13:26;;;;;;;1.17;1.15;;;;;;;19.98;61.30;101715.66;6193499;28;20321;-46
2021/09/18 09:17:02;;;;;;;0.75;0.75;;;;;;;20.10;60.54;101715.22;6199042;28;20229;-48
2021/09/18 09:20:23;;;;;;;1.55;1.00;;;;;;;19.81;60.97;101709.19;6197392;28;20245;-51
2021/09/18 09:23:46;;;;;;;1.45;1.02;;;;;;;19.66;61.25;101707.00;6202710;28;20324;-52
2021/09/18 09:27:10;;;;;;;1.60;1.50;;;;;;;19.40;62.64;101710.47;6201130;28;20237;-49
2021/09/18 09:30:33;;;;;;;1.42;0.90;;;;;;;19.64;62.60;101719.41;6200840;28;20221;-46
2021/09/18 09:34:04;;;;;;;1.13;1.05;;;;;;;20.04;61.75;101718.09;6187056;28;20244;-49
2021/09/18 09:37:26;;;;;;;0.77;0.70;;;;;;;20.11;61.38;101724.91;6189432;28;20229;-48
2021/09/18 09:40:49;;;;;;;0.77;0.70;;;;;;;20.49;60.00;101729.75;6199334;28;20356;-48
2021/09/18 09:44:12;;;;;;;1.10;1.00;;;;;;;20.74;59.39;101722.66;6204855;28;20225;-49
2021/09/18 09:47:33;;;;;;;0.70;0.70;;;;;;;20.97;59.23;101716.50;6202754;28;20233;-50
2021/09/18 09:51:02;;;;;;;1.10;0.82;;;;;;;21.09;58.68;101724.91;6198963;28;20234;-48
2021/09/18 09:54:26;;;;;;;1.02;1.00;;;;;;;20.61;59.04;101724.91;6199267;28;20233;-50
2021/09/18 09:57:57;;;;;;;1.45;1.35;;;;;;;20.14;60.79;101735.38;6199316;28;20237;-51
2021/09/18 10:01:19;;;;;;;1.08;0.98;;;;;;;19.66;61.81;101733.44;6194169;28;20244;-47
2021/09/18 10:04:39;;;;;;;1.08;1.02;;;;;;;20.02;61.72;101733.16;6192477;28;20241;-48
2021/09/18 10:08:02;;;;;;;1.67;1.13;;;;;;;20.36;60.29;101729.34;6192627;28;20320;-46
2021/09/18 10:11:28;;;;;;;1.20;1.10;;;;;;;20.84;59.17;101731.16;6202073;28;20229;-49
2021/09/18 10:14:54;;;;;;;0.90;0.82;;;;;;;21.08;57.93;101733.78;6188861;28;20562;-48
2021/09/18 10:18:15;;;;;;;2.20;1.05;;;;;;;21.28;57.07;101725.91;6202152;28;20221;-47
2021/09/18 10:25:18;;;;;;;0.68;0.68;;;;;;;21.32;56.37;101724.00;6203156;28;20221;-45
2021/09/18 10:28:44;;;;;;;1.25;1.15;;;;;;;21.23;56.51;101725.25;6205351;28;20326;-47
2021/09/18 10:32:05;;;;;;;1.33;1.05;;;;;;;21.06;56.98;101735.63;6200998;28;20583;-49
2021/09/18 10:35:27;;;;;;;0.60;0.60;;;;;;;20.51;57.60;101734.09;6194749;28;20236;-48
2021/09/18 10:38:49;;;;;;;1.10;1.00;;;;;;;20.65;58.15;101725.66;6203174;28;20241;-49
2021/09/18 10:42:32;;;;;;;1.00;0.80;;;;;;;20.76;57.60;101727.91;6195928;28;20237;-47
2021/09/18 10:45:54;;;;;;;1.55;1.45;;;;;;;20.31;58.23;101729.47;6199249;28;20604;-52
2021/09/18 10:49:37;;;;;;;3.92;1.80;;;;;;;20.32;58.23;101728.59;6203459;28;20324;-45
2021/09/18 10:52:59;;;;;;;3.15;1.50;;;;;;;19.94;59.19;101733.41;6194957;28;20236;-45
2021/09/18 10:56:20;;;;;;;1.77;1.23;;;;;;;19.82;59.70;101744.41;6195377;28;20241;-46
2021/09/18 10:59:50;;;;;;;1.17;0.93;;;;;;;19.68;60.33;101736.91;6195739;28;20587;-44
2021/09/18 11:03:11;;;;;;;2.60;1.55;;;;;;;19.63;60.75;101741.44;6193264;28;20252;-51
2021/09/18 11:06:40;;;;;;;4.75;1.98;;;;;;;19.66;60.43;101749.28;6205949;28;20229;-47
2021/09/18 11:10:01;;;;;;;1.23;1.13;;;;;;;19.61;60.57;101756.50;6200304;28;20229;-48
2021/09/18 11:13:23;;;;;;;1.92;1.33;;;;;;;19.61;60.50;101745.91;6201545;28;20230;-46
2021/09/18 11:16:46;;;;;;;1.40;1.30;;;;;;;19.33;61.02;101751.19;6193193;28;20319;-47
2021/09/18 11:20:15;;;;;;;0.90;0.90;;;;;;;19.56;60.16;101759.28;6203822;28;20236;-47
2021/09/18 11:23:38;;;;;;;1.52;1.13;;;;;;;19.35;60.91;101755.53;6192959;28;20241;-50
2021/09/18 11:26:59;;;;;;;3.60;1.35;;;;;;;19.43;61.49;101763.22;6200439;28;20467;-45
2021/09/18 11:30:20;;;;;;;2.33;1.30;;;;;;;19.59;61.39;101755.69;6203788;28;20253;-48
2021/09/18 11:33:48;;;;;;;4.40;2.28;;;;;;;20.09;62.24;101755.81;6195159;28;20222;-49
2021/09/18 11:37:19;;;;;;;2.20;1.63;;;;;;;19.95;61.26;101761.56;6202510;28;20234;-49
2021/09/18 11:40:40;;;;;;;3.55;1.70;;;;;;;20.09;60.92;101754.97;6207909;28;20595;-45
2021/09/18 11:44:09;;;;;;;3.00;1.50;;;;;;;20.07;60.50;101765.59;6209699;28;20244;-50
2021/09/18 11:47:33;;;;;;;1.77;1.67;;;;;;;19.81;60.45;101763.78;6204267;28;20597;-48
2021/09/18 11:50:56;;;;;;;2.65;1.90;;;;;;;19.93;60.74;101765.16;6200509;28;20217;-50
2021/09/18 11:54:17;;;;;;;3.13;1.80;;;;;;;20.16;60.26;101765.28;6201122;28;20229;-46
2021/09/18 11:57:38;;;;;;;1.63;1.40;;;;;;;20.06;60.08;101764.72;6205302;28;20347;-50
2021/09/18 12:01:00;;;;;;;4.68;1.50;;;;;;;20.12;60.89;101773.34;6203293;28;21057;-51
2021/09/18 12:04:21;;;;;;;5.10;1.63;;;;;;;20.41;60.35;101775.88;6207816;28;20319;-50
2021/09/18 12:07:47;;;;;;;1.30;1.20;;;;;;;20.38;58.61;101765.38;6186705;28;20708;-47
2021/09/18 12:11:12;;;;;;;2.45;1.55;;;;;;;19.98;59.40;101773.81;6189278;28;20587;-49
2021/09/18 12:14:34;;;;;;;1.88;0.80;;;;;;;19.96;59.86;101773.00;6202990;28;20224;-51
2021/09/18 12:17:55;;;;;;;2.65;1.02;;;;;;;19.54;61.57;101776.97;6202699;28;20225;-50
2021/09/18 12:21:18;;;;;;;1.92;1.55;;;;;;;19.22;62.84;101775.31;6199371;28;20229;-51
2021/09/18 12:24:41;;;;;;;2.67;1.65;;;;;;;19.50;63.25;101771.81;6203086;28;20232;-47
2021/09/18 12:28:05;;;;;;;1.00;0.90;;;;;;;19.40;63.59;101774.72;6197257;28;20241;-47
2021/09/18 12:31:27;;;;;;;2.05;1.50;;;;;;;19.51;62.67;101771.78;6201425;28;20774;-47
2021/09/18 12:34:49;;;;;;;3.55;1.70;;;;;;;19.79;62.15;101774.44;6206658;28;20233;-49
2021/09/18 12:38:12;;;;;;;3.10;1.95;;;;;;;19.88;61.85;101775.91;6205514;28;20245;-52
2021/09/18 12:41:36;;;;;;;2.58;2.10;;;;;;;19.78;61.30;101775.34;6208896;28;20267;-50
2021/09/18 12:44:57;;;;;;;1.90;1.70;;;;;;;19.51;61.41;101773.56;6201082;28;20234;-48
2021/09/18 12:48:22;;;;;;;1.77;1.67;;;;;;;19.62;61.71;101776.72;6205706;28;20607;-53
2021/09/18 12:51:46;;;;;;;1.90;1.80;;;;;;;19.59;61.36;101774.16;6191088;28;20229;-53
2021/09/18 12:55:08;;;;;;;1.58;1.45;;;;;;;19.73;60.52;101774.63;6205662;28;20233;-48
2021/09/18 12:58:30;;;;;;;2.55;2.35;;;;;;;19.97;59.97;101769.47;6205960;28;20261;-49
2021/09/18 13:01:53;;;;;;;3.08;2.20;;;;;;;20.22;59.29;101767.72;6201723;28;20230;-51
2021/09/18 13:05:19;;;;;;;4.00;2.22;;;;;;;20.25;59.67;101770.22;6191970;28;20233;-46
2021/09/18 13:08:48;;;;;;;2.03;1.83;;;;;;;20.00;58.92;101769.34;6206772;28;20284;-49
2021/09/18 13:12:11;;;;;;;3.05;1.90;;;;;;;20.10;58.38;101769.91;6202844;28;20233;-52
2021/09/18 13:15:33;;;;;;;2.17;2.03;;;;;;;20.33;57.63;101766.47;6210514;28;20232;-50
2021/09/18 13:19:09;;;;;;;2.17;1.98;;;;;;;20.69;56.64;101768.78;6204766;28;20230;-50
2021/09/18 13:22:34;;;;;;;1.98;1.73;;;;;;;20.58;55.31;101767.31;6189966;28;20244;-48
2021/09/18 13:25:55;;;;;;;3.53;1.85;;;;;;;20.35;54.85;101764.63;6203110;28;20260;-51
2021/09/18 13:29:15;;;;;;;3.30;2.33;;;;;;;20.74;53.84;101764.16;6210062;28;20233;-49
2021/09/18 13:32:38;;;;;;;4.38;2.80;;;;;;;20.84;53.84;101768.22;6205989;28;20241;-49
2021/09/18 13:35:59;;;;;;;2.42;2.22;;;;;;;20.91;52.86;101764.38;6204242;28;20312;-47
2021/09/18 13:39:20;;;;;;;2.83;2.08;;;;;;;22.11;50.37;101767.59;6201773;28;20294;-50
2021/09/18 13:42:41;;;;;;;2.60;2.40;;;;;;;22.48;48.75;101758.06;6206922;28;20226;-47
2021/09/18 13:46:02;;;;;;;3.22;1.95;;;;;;;22.49;48.65;101759.81;6209183;28;20233;-51
2021/09/18 13:49:25;;;;;;;4.72;1.92;;;;;;;21.96;49.97;101763.78;6210865;28;20260;-49
2021/09/18 13:52:45;;;;;;;3.50;2.22;;;;;;;20.91;51.81;101767.03;6200592;28;20600;-51
2021/09/18 13:56:08;;;;;;;2.45;2.25;;;;;;;20.17;53.85;101766.13;6209064;28;20823;-47
2021/09/18 13:59:29;;;;;;;1.58;1.48;;;;;;;20.27;53.68;101765.75;6200737;28;21041;-50
2021/09/18 14:02:50;;;;;;;2.00;1.17;;;;;;;20.35;53.28;101764.63;6196659;28;20222;-51
2021/09/18 14:06:12;;;;;;;2.13;1.98;;;;;;;20.34;53.90;101758.47;6206027;28;20237;-51
2021/09/18 14:09:33;;;;;;;2.00;1.75;;;;;;;20.71;53.39;101753.69;6206290;28;20311;-51
2021/09/18 14:12:54;;;;;;;3.08;1.40;;;;;;;20.62;53.40;101757.53;6199963;28;20237;-51
2021/09/18 14:16:15;;;;;;;1.85;1.75;;;;;;;20.35;52.46;101744.31;6204847;28;20229;-48
2021/09/18 14:19:36;;;;;;;1.02;1.00;;;;;;;20.13;52.27;101749.50;6206542;28;20309;-48
2021/09/18 14:22:59;;;;;;;1.92;1.42;;;;;;;20.22;52.55;101743.91;6200025;28;20233;-50
2021/09/18 14:26:20;;;;;;;2.13;1.92;;;;;;;20.51;52.14;101749.06;6199518;28;20234;-51
2021/09/18 14:29:41;;;;;;;1.70;1.55;;;;;;;20.42;52.90;101745.00;6204300;28;20229;-53
2021/09/18 14:33:02;;;;;;;2.15;1.35;;;;;;;19.95;53.75;101744.84;6200868;28;20234;-50
2021/09/18 14:36:23;;;;;;;1.65;1.42;;;;;;;20.19;54.03;101741.34;6199997;28;20225;-54
2021/09/18 14:39:45;;;;;;;2.47;1.50;;;;;;;20.17;53.92;101748.47;6205033;28;20237;-49
2021/09/18 14:43:06;;;;;;;1.80;1.58;;;;;;;20.17;53.99;101745.84;6205779;28;20651;-47
2021/09/18 14:46:27;;;;;;;1.30;1.20;;;;;;;20.02;54.04;101756.94;6203597;28;20233;-47
2021/09/18 14:49:48;;;;;;;2.55;1.48;;;;;;;19.91;54.43;101759.06;6206056;28;20229;-51
2021/09/18 14:53:09;;;;;;;1.40;1.30;;;;;;;19.92;54.34;101748.44;6194719;28;20225;-49
2021/09/18 14:56:31;;;;;;;2.25;1.85;;;;;;;20.04;54.43;101750.66;6201941;28;20316;-50
2021/09/18 14:59:53;;;;;;;1.83;1.40;;;;;;;20.19;54.18;101765.16;6203694;28;20988;-49
2021/09/18 15:03:14;;;;;;;1.77;1.67;;;;;;;20.12;54.06;101760.13;6202114;28;20324;-50
2021/09/18 15:06:34;;;;;;;1.45;1.35;;;;;;;19.99;53.95;101744.69;6186921;28;20284;-46
2021/09/18 15:09:55;;;;;;;1.50;1.40;;;;;;;20.10;53.86;101748.75;6211315;28;20240;-48
2021/09/18 15:13:17;;;;;;;1.65;1.55;;;;;;;20.40;53.42;101752.97;6200583;28;20229;-48
2021/09/18 15:16:38;;;;;;;2.22;1.80;;;;;;;20.39;53.69;101753.03;6205048;28;20235;-49
2021/09/18 15:19:59;;;;;;;1.77;1.67;;;;;;;20.55;53.63;101751.56;6196957;28;20229;-49
2021/09/18 15:23:20;;;;;;;3.88;2.45;;;;;;;20.50;53.55;101752.66;6202936;28;20237;-51
2021/09/18 15:26:41;;;;;;;4.07;2.25;;;;;;;20.43;53.82;101754.63;6200464;28;20222;-47
2021/09/18 15:30:03;;;;;;;1.70;1.60;;;;;;;20.27;53.75;101747.25;6202939;28;20233;-52
2021/09/18 15:33:25;;;;;;;2.05;1.67;;;;;;;20.42;52.56;101751.13;6181646;28;20298;-51
2021/09/18 15:36:46;;;;;;;2.80;1.65;;;;;;;20.84;52.39;101749.69;6208990;28;20498;-48
2021/09/18 15:40:08;;;;;;;2.33;2.13;;;;;;;20.63;53.06;101754.81;6200473;28;20237;-48
2021/09/18 15:43:30;;;;;;;1.50;1.33;;;;;;;20.53;53.24;101756.06;6201365;28;20249;-46